Terminal Aerodrome Forecast
Issued by NWS

Home | Current Version | Previous Version | Text Only | Print | Product List | Glossary On
Versions: 1 2 3 4 5 6 7 8 9 10 11 12 13 14 15 16 17
310
FTUS46 KLOX 232338
TAFBUR
TAF
KBUR 232338Z 2400/2424 16010KT P6SM SKC
     FM240400 14008KT P6SM SCT150
     FM240700 14006KT 6SM BR SCT007
     FM241000 VRB03KT 6SM BR OVC007
     FM241500 15004KT 6SM BR BKN012
     FM241630 15005KT P6SM SCT012
     FM242000 17010KT P6SM SKC=

USA.gov is the U.S. government's official web portal to all federal, state and local government web resources and services.